sensor_id;sensor_type;location;lat;lon;timestamp;temperature;humidity
34877;DHT22;21086;44.780;17.194;2022-09-01T00:02:28;21.80;1.00
34877;DHT22;21086;44.780;17.194;2022-09-01T00:04:55;21.90;1.00
34877;DHT22;21086;44.780;17.194;2022-09-01T00:07:26;21.90;1.00
34877;DHT22;21086;44.780;17.194;2022-09-01T00:09:56;21.90;1.00
34877;DHT22;21086;44.780;17.194;2022-09-01T00:12:23;21.90;1.00
34877;DHT22;21086;44.780;17.194;2022-09-01T00:14:51;21.90;1.00
34877;DHT22;21086;44.780;17.194;2022-09-01T00:17:18;21.90;1.00
34877;DHT22;21086;44.780;17.194;2022-09-01T00:19:45;22.00;1.00
34877;DHT22;21086;44.780;17.194;2022-09-01T00:22:12;22.00;1.00
34877;DHT22;21086;44.780;17.194;2022-09-01T00:24:39;22.00;1.00
34877;DHT22;21086;44.780;17.194;2022-09-01T00:27:06;22.00;1.00
34877;DHT22;21086;44.780;17.194;2022-09-01T00:29:34;22.00;1.00
34877;DHT22;21086;44.780;17.194;2022-09-01T00:32:02;22.00;1.00
34877;DHT22;21086;44.780;17.194;2022-09-01T00:34:30;22.00;1.00
34877;DHT22;21086;44.780;17.194;2022-09-01T00:36:57;22.00;1.00
34877;DHT22;21086;44.780;17.194;2022-09-01T00:39:25;22.10;1.00
34877;DHT22;21086;44.780;17.194;2022-09-01T00:41:52;22.10;1.00
34877;DHT22;21086;44.780;17.194;2022-09-01T00:44:21;22.10;1.00
34877;DHT22;21086;44.780;17.194;2022-09-01T00:46:52;21.90;1.00
34877;DHT22;21086;44.780;17.194;2022-09-01T00:52:04;22.00;1.00
34877;DHT22;21086;44.780;17.194;2022-09-01T00:54:35;21.90;1.00
34877;DHT22;21086;44.780;17.194;2022-09-01T00:57:04;21.80;1.00
34877;DHT22;21086;44.780;17.194;2022-09-01T00:59:31;21.80;1.00
34877;DHT22;21086;44.780;17.194;2022-09-01T01:01:58;21.80;1.00
34877;DHT22;21086;44.780;17.194;2022-09-01T01:04:25;21.70;1.00
34877;DHT22;21086;44.780;17.194;2022-09-01T01:06:55;21.40;1.00
34877;DHT22;21086;44.780;17.194;2022-09-01T01:09:30;21.20;1.00
34877;DHT22;21086;44.780;17.194;2022-09-01T01:12:00;21.10;1.00
34877;DHT22;21086;44.780;17.194;2022-09-01T01:14:28;21.00;1.00
34877;DHT22;21086;44.780;17.194;2022-09-01T01:16:58;21.00;1.00
34877;DHT22;21086;44.780;17.194;2022-09-01T01:19:43;20.90;1.00
34877;DHT22;21086;44.780;17.194;2022-09-01T01:30:51;21.30;1.00
34877;DHT22;21086;44.780;17.194;2022-09-01T01:33:21;21.30;1.00
34877;DHT22;21086;44.780;17.194;2022-09-01T01:35:51;21.40;1.00
34877;DHT22;21086;44.780;17.194;2022-09-01T01:38:19;21.40;1.00
34877;DHT22;21086;44.780;17.194;2022-09-01T01:40:50;21.50;1.00
34877;DHT22;21086;44.780;17.194;2022-09-01T01:43:17;21.50;1.00
34877;DHT22;21086;44.780;17.194;2022-09-01T01:45:48;21.50;1.00
34877;DHT22;21086;44.780;17.194;2022-09-01T01:48:21;21.70;1.00
34877;DHT22;21086;44.780;17.194;2022-09-01T01:50:54;21.60;1.00
34877;DHT22;21086;44.780;17.194;2022-09-01T01:53:21;21.70;1.00
34877;DHT22;21086;44.780;17.194;2022-09-01T01:55:48;21.70;1.00
34877;DHT22;21086;44.780;17.194;2022-09-01T01:58:16;21.60;1.00
34877;DHT22;21086;44.780;17.194;2022-09-01T02:00:47;21.50;1.00
34877;DHT22;21086;44.780;17.194;2022-09-01T02:03:16;22.60;1.00
34877;DHT22;21086;44.780;17.194;2022-09-01T02:05:50;21.30;1.00
34877;DHT22;21086;44.780;17.194;2022-09-01T02:08:18;21.20;1.00
34877;DHT22;21086;44.780;17.194;2022-09-01T02:10:48;21.20;1.00
34877;DHT22;21086;44.780;17.194;2022-09-01T02:13:19;21.20;1.00
34877;DHT22;21086;44.780;17.194;2022-09-01T02:15:51;21.20;1.00
34877;DHT22;21086;44.780;17.194;2022-09-01T02:18:32;21.10;1.00
34877;DHT22;21086;44.780;17.194;2022-09-01T02:21:06;21.10;1.00
34877;DHT22;21086;44.780;17.194;2022-09-01T02:23:45;21.20;1.00
34877;DHT22;21086;44.780;17.194;2022-09-01T02:26:13;21.30;1.00
34877;DHT22;21086;44.780;17.194;2022-09-01T02:28:46;21.30;1.00
34877;DHT22;21086;44.780;17.194;2022-09-01T02:31:22;21.30;1.00
34877;DHT22;21086;44.780;17.194;2022-09-01T02:33:49;21.30;1.00
34877;DHT22;21086;44.780;17.194;2022-09-01T02:36:17;21.40;1.00
34877;DHT22;21086;44.780;17.194;2022-09-01T02:38:46;21.20;1.00
34877;DHT22;21086;44.780;17.194;2022-09-01T02:41:22;21.00;1.00
34877;DHT22;21086;44.780;17.194;2022-09-01T02:43:55;20.80;1.00
34877;DHT22;21086;44.780;17.194;2022-09-01T02:46:23;20.70;1.00
34877;DHT22;21086;44.780;17.194;2022-09-01T02:48:50;20.70;1.00
34877;DHT22;21086;44.780;17.194;2022-09-01T02:51:21;20.70;1.00
34877;DHT22;21086;44.780;17.194;2022-09-01T02:53:50;20.70;1.00
34877;DHT22;21086;44.780;17.194;2022-09-01T02:56:20;20.70;1.00
34877;DHT22;21086;44.780;17.194;2022-09-01T02:58:51;20.70;1.00
34877;DHT22;21086;44.780;17.194;2022-09-01T03:01:20;20.70;1.00
34877;DHT22;21086;44.780;17.194;2022-09-01T03:03:53;20.70;1.00
34877;DHT22;21086;44.780;17.194;2022-09-01T03:06:20;20.70;1.00
34877;DHT22;21086;44.780;17.194;2022-09-01T03:08:55;20.70;1.00
34877;DHT22;21086;44.780;17.194;2022-09-01T03:11:27;20.70;1.00
34877;DHT22;21086;44.780;17.194;2022-09-01T03:13:55;21.00;1.00
34877;DHT22;21086;44.780;17.194;2022-09-01T03:16:22;21.00;1.00
34877;DHT22;21086;44.780;17.194;2022-09-01T03:18:50;20.90;1.00
34877;DHT22;21086;44.780;17.194;2022-09-01T03:21:17;21.10;1.00
34877;DHT22;21086;44.780;17.194;2022-09-01T03:23:45;20.90;1.00
34877;DHT22;21086;44.780;17.194;2022-09-01T03:26:13;20.80;1.00
34877;DHT22;21086;44.780;17.194;2022-09-01T03:28:41;20.70;1.00
34877;DHT22;21086;44.780;17.194;2022-09-01T03:31:08;20.70;1.00
34877;DHT22;21086;44.780;17.194;2022-09-01T03:33:35;20.70;1.00
34877;DHT22;21086;44.780;17.194;2022-09-01T03:36:04;20.80;1.00
34877;DHT22;21086;44.780;17.194;2022-09-01T03:38:41;20.70;1.00
34877;DHT22;21086;44.780;17.194;2022-09-01T03:41:10;20.50;1.00
34877;DHT22;21086;44.780;17.194;2022-09-01T03:43:39;20.40;1.00
34877;DHT22;21086;44.780;17.194;2022-09-01T03:46:14;20.40;1.00
34877;DHT22;21086;44.780;17.194;2022-09-01T03:48:51;20.60;1.00
34877;DHT22;21086;44.780;17.194;2022-09-01T03:51:20;20.40;1.00
34877;DHT22;21086;44.780;17.194;2022-09-01T03:53:50;20.30;1.00
34877;DHT22;21086;44.780;17.194;2022-09-01T03:56:22;20.20;1.00
34877;DHT22;21086;44.780;17.194;2022-09-01T03:58:51;20.10;1.00
34877;DHT22;21086;44.780;17.194;2022-09-01T04:01:19;19.80;1.00
34877;DHT22;21086;44.780;17.194;2022-09-01T04:03:45;19.70;1.00
34877;DHT22;21086;44.780;17.194;2022-09-01T04:06:15;19.70;1.00
34877;DHT22;21086;44.780;17.194;2022-09-01T04:08:45;19.50;1.00
34877;DHT22;21086;44.780;17.194;2022-09-01T04:11:16;19.50;1.00
34877;DHT22;21086;44.780;17.194;2022-09-01T04:13:45;19.50;1.00
34877;DHT22;21086;44.780;17.194;2022-09-01T04:16:26;19.40;1.00
34877;DHT22;21086;44.780;17.194;2022-09-01T04:19:15;19.40;1.00
34877;DHT22;21086;44.780;17.194;2022-09-01T04:21:51;19.30;1.00
34877;DHT22;21086;44.780;17.194;2022-09-01T04:24:23;19.20;1.00
34877;DHT22;21086;44.780;17.194;2022-09-01T04:26:51;19.40;1.00
34877;DHT22;21086;44.780;17.194;2022-09-01T04:29:20;19.40;1.00
34877;DHT22;21086;44.780;17.194;2022-09-01T04:31:58;19.30;1.00
34877;DHT22;21086;44.780;17.194;2022-09-01T04:34:30;19.20;1.00
34877;DHT22;21086;44.780;17.194;2022-09-01T04:37:10;19.10;1.00
34877;DHT22;21086;44.780;17.194;2022-09-01T04:39:39;19.30;1.00
34877;DHT22;21086;44.780;17.194;2022-09-01T04:42:06;19.30;1.00
34877;DHT22;21086;44.780;17.194;2022-09-01T04:44:34;19.10;1.00
34877;DHT22;21086;44.780;17.194;2022-09-01T04:47:01;19.00;1.00
34877;DHT22;21086;44.780;17.194;2022-09-01T04:49:29;19.00;1.00
34877;DHT22;21086;44.780;17.194;2022-09-01T04:51:59;19.10;1.00
34877;DHT22;21086;44.780;17.194;2022-09-01T04:54:27;19.10;1.00
34877;DHT22;21086;44.780;17.194;2022-09-01T04:56:53;19.10;1.00
34877;DHT22;21086;44.780;17.194;2022-09-01T04:59:22;19.00;1.00
34877;DHT22;21086;44.780;17.194;2022-09-01T05:01:50;19.30;1.00
34877;DHT22;21086;44.780;17.194;2022-09-01T05:04:25;19.40;1.00
34877;DHT22;21086;44.780;17.194;2022-09-01T05:06:55;19.30;1.00
34877;DHT22;21086;44.780;17.194;2022-09-01T05:09:33;19.20;1.00
34877;DHT22;21086;44.780;17.194;2022-09-01T05:12:04;19.00;1.00
34877;DHT22;21086;44.780;17.194;2022-09-01T05:14:44;18.90;1.00
34877;DHT22;21086;44.780;17.194;2022-09-01T05:17:14;19.00;1.00
34877;DHT22;21086;44.780;17.194;2022-09-01T05:19:46;18.90;1.00
34877;DHT22;21086;44.780;17.194;2022-09-01T05:22:14;18.90;1.00
34877;DHT22;21086;44.780;17.194;2022-09-01T05:24:41;18.70;1.00
34877;DHT22;21086;44.780;17.194;2022-09-01T05:27:08;18.70;1.00
34877;DHT22;21086;44.780;17.194;2022-09-01T05:29:38;19.20;1.00
34877;DHT22;21086;44.780;17.194;2022-09-01T05:32:07;17.10;1.00
34877;DHT22;21086;44.780;17.194;2022-09-01T05:34:39;18.90;1.00
34877;DHT22;21086;44.780;17.194;2022-09-01T05:37:08;19.10;1.00
34877;DHT22;21086;44.780;17.194;2022-09-01T05:39:38;18.90;1.00
34877;DHT22;21086;44.780;17.194;2022-09-01T05:42:06;18.80;1.00
34877;DHT22;21086;44.780;17.194;2022-09-01T05:44:34;18.60;1.00
34877;DHT22;21086;44.780;17.194;2022-09-01T05:47:01;18.50;1.00
34877;DHT22;21086;44.780;17.194;2022-09-01T05:49:29;18.50;1.00
34877;DHT22;21086;44.780;17.194;2022-09-01T05:51:59;18.30;1.00
34877;DHT22;21086;44.780;17.194;2022-09-01T05:54:26;18.10;1.00
34877;DHT22;21086;44.780;17.194;2022-09-01T05:56:55;18.00;1.00
34877;DHT22;21086;44.780;17.194;2022-09-01T05:59:44;17.90;1.00
34877;DHT22;21086;44.780;17.194;2022-09-01T06:02:13;17.80;1.00
34877;DHT22;21086;44.780;17.194;2022-09-01T06:04:40;17.80;1.00
34877;DHT22;21086;44.780;17.194;2022-09-01T06:07:14;17.80;1.00
34877;DHT22;21086;44.780;17.194;2022-09-01T06:09:47;17.70;1.00
34877;DHT22;21086;44.780;17.194;2022-09-01T06:12:15;17.80;1.00
34877;DHT22;21086;44.780;17.194;2022-09-01T06:14:47;17.80;1.00
34877;DHT22;21086;44.780;17.194;2022-09-01T06:17:15;17.80;1.00
34877;DHT22;21086;44.780;17.194;2022-09-01T06:19:45;17.90;1.00
34877;DHT22;21086;44.780;17.194;2022-09-01T06:22:12;17.90;1.00
34877;DHT22;21086;44.780;17.194;2022-09-01T06:24:39;17.90;1.00
34877;DHT22;21086;44.780;17.194;2022-09-01T06:27:10;17.90;1.00
34877;DHT22;21086;44.780;17.194;2022-09-01T06:29:38;17.80;1.00
34877;DHT22;21086;44.780;17.194;2022-09-01T06:32:08;17.80;1.00
34877;DHT22;21086;44.780;17.194;2022-09-01T06:34:41;18.00;1.00
34877;DHT22;21086;44.780;17.194;2022-09-01T06:37:10;18.10;1.00
34877;DHT22;21086;44.780;17.194;2022-09-01T06:39:38;18.00;1.00
34877;DHT22;21086;44.780;17.194;2022-09-01T06:42:06;18.00;1.00
34877;DHT22;21086;44.780;17.194;2022-09-01T06:44:35;17.90;1.00
34877;DHT22;21086;44.780;17.194;2022-09-01T06:47:06;17.90;1.00
34877;DHT22;21086;44.780;17.194;2022-09-01T06:49:35;17.80;1.00
34877;DHT22;21086;44.780;17.194;2022-09-01T06:52:05;17.80;1.00
34877;DHT22;21086;44.780;17.194;2022-09-01T06:54:32;17.80;1.00
34877;DHT22;21086;44.780;17.194;2022-09-01T06:57:02;17.80;1.00
34877;DHT22;21086;44.780;17.194;2022-09-01T06:59:49;17.80;1.00
34877;DHT22;21086;44.780;17.194;2022-09-01T07:02:19;17.80;1.00
34877;DHT22;21086;44.780;17.194;2022-09-01T07:05:06;17.90;1.00
34877;DHT22;21086;44.780;17.194;2022-09-01T07:07:33;18.00;1.00
34877;DHT22;21086;44.780;17.194;2022-09-01T07:10:25;17.90;1.00
34877;DHT22;21086;44.780;17.194;2022-09-01T07:12:54;17.90;1.00
34877;DHT22;21086;44.780;17.194;2022-09-01T07:15:41;17.80;1.00
34877;DHT22;21086;44.780;17.194;2022-09-01T07:18:29;17.80;1.00
34877;DHT22;21086;44.780;17.194;2022-09-01T07:20:57;17.80;1.00
34877;DHT22;21086;44.780;17.194;2022-09-01T07:23:33;17.90;1.00
34877;DHT22;21086;44.780;17.194;2022-09-01T07:26:20;17.90;1.00
34877;DHT22;21086;44.780;17.194;2022-09-01T07:28:52;17.90;1.00
34877;DHT22;21086;44.780;17.194;2022-09-01T07:31:32;18.00;1.00
34877;DHT22;21086;44.780;17.194;2022-09-01T07:34:21;18.10;1.00
34877;DHT22;21086;44.780;17.194;2022-09-01T07:37:08;18.20;1.00
34877;DHT22;21086;44.780;17.194;2022-09-01T07:39:55;18.20;1.00
34877;DHT22;21086;44.780;17.194;2022-09-01T07:42:22;18.30;1.00
34877;DHT22;21086;44.780;17.194;2022-09-01T07:45:11;18.30;1.00
34877;DHT22;21086;44.780;17.194;2022-09-01T07:47:55;18.30;1.00
34877;DHT22;21086;44.780;17.194;2022-09-01T07:50:22;18.50;1.00
34877;DHT22;21086;44.780;17.194;2022-09-01T07:53:33;18.60;1.00
34877;DHT22;21086;44.780;17.194;2022-09-01T07:56:07;18.70;1.00
34877;DHT22;21086;44.780;17.194;2022-09-01T07:58:36;18.70;1.00
34877;DHT22;21086;44.780;17.194;2022-09-01T08:01:08;18.70;1.00
34877;DHT22;21086;44.780;17.194;2022-09-01T08:03:36;18.70;1.00
34877;DHT22;21086;44.780;17.194;2022-09-01T08:06:06;18.80;1.00
34877;DHT22;21086;44.780;17.194;2022-09-01T08:08:35;18.90;1.00
34877;DHT22;21086;44.780;17.194;2022-09-01T08:11:04;19.00;1.00
34877;DHT22;21086;44.780;17.194;2022-09-01T08:13:35;19.10;1.00
34877;DHT22;21086;44.780;17.194;2022-09-01T08:16:08;19.00;1.00
34877;DHT22;21086;44.780;17.194;2022-09-01T08:18:45;19.10;1.00
34877;DHT22;21086;44.780;17.194;2022-09-01T08:21:16;19.00;1.00
34877;DHT22;21086;44.780;17.194;2022-09-01T08:23:43;18.90;1.00
34877;DHT22;21086;44.780;17.194;2022-09-01T08:26:13;18.80;1.00
34877;DHT22;21086;44.780;17.194;2022-09-01T08:28:41;18.80;1.00
34877;DHT22;21086;44.780;17.194;2022-09-01T08:31:14;18.90;1.00
34877;DHT22;21086;44.780;17.194;2022-09-01T08:33:44;18.90;1.00
34877;DHT22;21086;44.780;17.194;2022-09-01T08:36:13;18.90;1.00
34877;DHT22;21086;44.780;17.194;2022-09-01T08:38:47;18.80;1.00
34877;DHT22;21086;44.780;17.194;2022-09-01T08:41:18;18.90;1.00
34877;DHT22;21086;44.780;17.194;2022-09-01T08:46:58;18.90;1.00
34877;DHT22;21086;44.780;17.194;2022-09-01T08:49:27;19.00;1.00
34877;DHT22;21086;44.780;17.194;2022-09-01T08:54:44;19.00;1.00
34877;DHT22;21086;44.780;17.194;2022-09-01T08:57:37;19.10;1.00
34877;DHT22;21086;44.780;17.194;2022-09-01T09:00:08;19.20;1.00
34877;DHT22;21086;44.780;17.194;2022-09-01T09:03:25;19.10;1.00
34877;DHT22;21086;44.780;17.194;2022-09-01T09:14:12;19.10;1.00
34877;DHT22;21086;44.780;17.194;2022-09-01T09:16:44;19.10;1.00
34877;DHT22;21086;44.780;17.194;2022-09-01T09:19:31;19.00;1.00
34877;DHT22;21086;44.780;17.194;2022-09-01T09:22:03;19.00;1.00
34877;DHT22;21086;44.780;17.194;2022-09-01T09:24:39;19.10;1.00
34877;DHT22;21086;44.780;17.194;2022-09-01T09:27:25;19.10;1.00
34877;DHT22;21086;44.780;17.194;2022-09-01T09:29:58;19.30;1.00
34877;DHT22;21086;44.780;17.194;2022-09-01T09:32:54;19.30;1.00
34877;DHT22;21086;44.780;17.194;2022-09-01T09:35:44;19.40;1.00
34877;DHT22;21086;44.780;17.194;2022-09-01T09:43:49;19.40;1.00
34877;DHT22;21086;44.780;17.194;2022-09-01T09:51:37;19.00;1.00
34877;DHT22;21086;44.780;17.194;2022-09-01T09:54:26;19.00;1.00
34877;DHT22;21086;44.780;17.194;2022-09-01T09:59:43;18.90;1.00
34877;DHT22;21086;44.780;17.194;2022-09-01T10:02:39;18.90;1.00
34877;DHT22;21086;44.780;17.194;2022-09-01T10:07:54;18.80;1.00
34877;DHT22;21086;44.780;17.194;2022-09-01T10:12:54;18.60;1.00
34877;DHT22;21086;44.780;17.194;2022-09-01T10:15:25;18.60;1.00
34877;DHT22;21086;44.780;17.194;2022-09-01T10:17:54;18.00;1.00
34877;DHT22;21086;44.780;17.194;2022-09-01T10:21:14;17.90;1.00
34877;DHT22;21086;44.780;17.194;2022-09-01T10:23:38;18.80;1.00
34877;DHT22;21086;44.780;17.194;2022-09-01T10:26:22;19.20;1.00
34877;DHT22;21086;44.780;17.194;2022-09-01T10:31:20;19.40;1.00
34877;DHT22;21086;44.780;17.194;2022-09-01T10:33:49;19.50;1.00
34877;DHT22;21086;44.780;17.194;2022-09-01T10:36:16;19.40;1.00
34877;DHT22;21086;44.780;17.194;2022-09-01T10:38:45;19.50;1.00
34877;DHT22;21086;44.780;17.194;2022-09-01T10:44:29;19.40;1.00
34877;DHT22;21086;44.780;17.194;2022-09-01T10:47:26;19.40;1.00
34877;DHT22;21086;44.780;17.194;2022-09-01T10:58:27;19.40;1.00
34877;DHT22;21086;44.780;17.194;2022-09-01T11:01:14;19.50;1.00
34877;DHT22;21086;44.780;17.194;2022-09-01T11:04:01;19.50;1.00
34877;DHT22;21086;44.780;17.194;2022-09-01T11:06:58;19.60;1.00
34877;DHT22;21086;44.780;17.194;2022-09-01T11:10:19;19.60;1.00
34877;DHT22;21086;44.780;17.194;2022-09-01T11:15:47;19.60;1.00
34877;DHT22;21086;44.780;17.194;2022-09-01T11:18:23;19.60;1.00
34877;DHT22;21086;44.780;17.194;2022-09-01T11:21:22;19.60;1.00
34877;DHT22;21086;44.780;17.194;2022-09-01T11:26:57;19.80;1.00
34877;DHT22;21086;44.780;17.194;2022-09-01T11:29:53;20.00;1.00
34877;DHT22;21086;44.780;17.194;2022-09-01T11:32:24;19.90;1.00
34877;DHT22;21086;44.780;17.194;2022-09-01T11:34:54;19.90;1.00
34877;DHT22;21086;44.780;17.194;2022-09-01T11:37:23;19.90;1.00
34877;DHT22;21086;44.780;17.194;2022-09-01T11:40:02;20.00;1.00
34877;DHT22;21086;44.780;17.194;2022-09-01T11:42:41;20.10;1.00
34877;DHT22;21086;44.780;17.194;2022-09-01T11:47:54;20.20;1.00
34877;DHT22;21086;44.780;17.194;2022-09-01T11:50:39;20.30;1.00
34877;DHT22;21086;44.780;17.194;2022-09-01T11:53:13;20.30;1.00
34877;DHT22;21086;44.780;17.194;2022-09-01T11:55:45;20.40;1.00
34877;DHT22;21086;44.780;17.194;2022-09-01T12:00:55;20.40;1.00
34877;DHT22;21086;44.780;17.194;2022-09-01T12:03:28;20.50;1.00
34877;DHT22;21086;44.780;17.194;2022-09-01T12:05:59;20.50;1.00
34877;DHT22;21086;44.780;17.194;2022-09-01T12:08:31;20.50;1.00
34877;DHT22;21086;44.780;17.194;2022-09-01T12:11:11;20.60;1.00
34877;DHT22;21086;44.780;17.194;2022-09-01T12:13:40;20.60;1.00
34877;DHT22;21086;44.780;17.194;2022-09-01T12:16:09;20.70;1.00
34877;DHT22;21086;44.780;17.194;2022-09-01T12:18:52;20.60;1.00
34877;DHT22;21086;44.780;17.194;2022-09-01T12:21:38;20.50;1.00
34877;DHT22;21086;44.780;17.194;2022-09-01T12:24:21;20.40;1.00
34877;DHT22;21086;44.780;17.194;2022-09-01T12:26:51;20.40;1.00
34877;DHT22;21086;44.780;17.194;2022-09-01T12:29:20;20.30;1.00
34877;DHT22;21086;44.780;17.194;2022-09-01T12:31:50;20.30;1.00
34877;DHT22;21086;44.780;17.194;2022-09-01T12:37:19;20.00;1.00
34877;DHT22;21086;44.780;17.194;2022-09-01T12:39:49;20.00;1.00
34877;DHT22;21086;44.780;17.194;2022-09-01T12:44:48;19.80;1.00
34877;DHT22;21086;44.780;17.194;2022-09-01T12:50:30;19.60;1.00
34877;DHT22;21086;44.780;17.194;2022-09-01T12:53:00;19.60;1.00
34877;DHT22;21086;44.780;17.194;2022-09-01T12:55:33;19.50;1.00
34877;DHT22;21086;44.780;17.194;2022-09-01T12:58:22;19.40;1.00
34877;DHT22;21086;44.780;17.194;2022-09-01T13:03:21;19.30;1.00
34877;DHT22;21086;44.780;17.194;2022-09-01T13:05:51;19.30;1.00
34877;DHT22;21086;44.780;17.194;2022-09-01T13:08:24;19.40;1.00
34877;DHT22;21086;44.780;17.194;2022-09-01T13:11:14;19.30;1.00
34877;DHT22;21086;44.780;17.194;2022-09-01T13:13:43;19.30;1.00
34877;DHT22;21086;44.780;17.194;2022-09-01T13:16:10;19.20;1.00
34877;DHT22;21086;44.780;17.194;2022-09-01T13:18:42;19.20;1.00
34877;DHT22;21086;44.780;17.194;2022-09-01T13:21:30;19.20;1.00
34877;DHT22;21086;44.780;17.194;2022-09-01T13:23:57;19.20;1.00
34877;DHT22;21086;44.780;17.194;2022-09-01T13:26:25;19.10;1.00
34877;DHT22;21086;44.780;17.194;2022-09-01T13:28:52;19.10;1.00
34877;DHT22;21086;44.780;17.194;2022-09-01T13:31:19;19.10;1.00
34877;DHT22;21086;44.780;17.194;2022-09-01T13:33:56;19.10;1.00
34877;DHT22;21086;44.780;17.194;2022-09-01T13:36:43;19.10;1.00
34877;DHT22;21086;44.780;17.194;2022-09-01T13:39:15;19.10;1.00
34877;DHT22;21086;44.780;17.194;2022-09-01T13:41:44;19.10;1.00
34877;DHT22;21086;44.780;17.194;2022-09-01T13:44:12;19.10;1.00
34877;DHT22;21086;44.780;17.194;2022-09-01T13:46:40;19.00;1.00
34877;DHT22;21086;44.780;17.194;2022-09-01T13:49:27;19.00;1.00
34877;DHT22;21086;44.780;17.194;2022-09-01T13:52:14;19.10;1.00
34877;DHT22;21086;44.780;17.194;2022-09-01T13:54:41;19.10;1.00
34877;DHT22;21086;44.780;17.194;2022-09-01T13:57:10;19.20;1.00
34877;DHT22;21086;44.780;17.194;2022-09-01T13:59:37;19.20;1.00
34877;DHT22;21086;44.780;17.194;2022-09-01T14:02:04;19.20;1.00
34877;DHT22;21086;44.780;17.194;2022-09-01T14:04:31;19.20;1.00
34877;DHT22;21086;44.780;17.194;2022-09-01T14:06:58;19.20;1.00
34877;DHT22;21086;44.780;17.194;2022-09-01T14:09:25;19.10;1.00
34877;DHT22;21086;44.780;17.194;2022-09-01T14:11:53;19.20;1.00
34877;DHT22;21086;44.780;17.194;2022-09-01T14:14:21;19.20;1.00
34877;DHT22;21086;44.780;17.194;2022-09-01T14:16:48;19.10;1.00
34877;DHT22;21086;44.780;17.194;2022-09-01T14:19:15;19.10;1.00
34877;DHT22;21086;44.780;17.194;2022-09-01T14:21:43;19.10;1.00
34877;DHT22;21086;44.780;17.194;2022-09-01T14:24:11;19.10;1.00
34877;DHT22;21086;44.780;17.194;2022-09-01T14:26:40;19.10;1.00
34877;DHT22;21086;44.780;17.194;2022-09-01T14:29:07;19.10;1.00
34877;DHT22;21086;44.780;17.194;2022-09-01T14:31:34;19.00;1.00
34877;DHT22;21086;44.780;17.194;2022-09-01T14:34:03;19.00;1.00
34877;DHT22;21086;44.780;17.194;2022-09-01T14:36:30;19.00;1.00
34877;DHT22;21086;44.780;17.194;2022-09-01T14:38:57;19.00;1.00
34877;DHT22;21086;44.780;17.194;2022-09-01T14:41:25;19.00;1.00
34877;DHT22;21086;44.780;17.194;2022-09-01T14:43:53;19.00;1.00
34877;DHT22;21086;44.780;17.194;2022-09-01T14:46:24;18.90;1.00
34877;DHT22;21086;44.780;17.194;2022-09-01T14:48:51;18.80;1.00
34877;DHT22;21086;44.780;17.194;2022-09-01T14:51:21;18.80;1.00
34877;DHT22;21086;44.780;17.194;2022-09-01T14:53:50;18.70;1.00
34877;DHT22;21086;44.780;17.194;2022-09-01T14:56:18;18.80;1.00
34877;DHT22;21086;44.780;17.194;2022-09-01T14:58:45;18.80;1.00
34877;DHT22;21086;44.780;17.194;2022-09-01T15:01:15;19.00;1.00
34877;DHT22;21086;44.780;17.194;2022-09-01T15:04:00;19.00;1.00
34877;DHT22;21086;44.780;17.194;2022-09-01T15:06:27;18.80;1.00
34877;DHT22;21086;44.780;17.194;2022-09-01T15:08:54;18.80;1.00
34877;DHT22;21086;44.780;17.194;2022-09-01T15:11:21;18.70;1.00
34877;DHT22;21086;44.780;17.194;2022-09-01T15:13:48;18.60;1.00
34877;DHT22;21086;44.780;17.194;2022-09-01T15:16:22;19.40;1.00
34877;DHT22;21086;44.780;17.194;2022-09-01T15:18:49;18.70;1.00
34877;DHT22;21086;44.780;17.194;2022-09-01T15:21:18;18.60;1.00
34877;DHT22;21086;44.780;17.194;2022-09-01T15:23:45;18.70;1.00
34877;DHT22;21086;44.780;17.194;2022-09-01T15:26:15;18.70;1.00
34877;DHT22;21086;44.780;17.194;2022-09-01T15:28:46;18.80;1.00
34877;DHT22;21086;44.780;17.194;2022-09-01T15:31:16;18.70;1.00
34877;DHT22;21086;44.780;17.194;2022-09-01T15:33:44;18.70;1.00
34877;DHT22;21086;44.780;17.194;2022-09-01T15:36:17;18.80;1.00
34877;DHT22;21086;44.780;17.194;2022-09-01T15:38:45;18.80;1.00
34877;DHT22;21086;44.780;17.194;2022-09-01T15:41:20;18.80;1.00
34877;DHT22;21086;44.780;17.194;2022-09-01T15:43:49;18.80;1.00
34877;DHT22;21086;44.780;17.194;2022-09-01T15:46:16;18.80;1.00
34877;DHT22;21086;44.780;17.194;2022-09-01T15:48:44;18.80;1.00
34877;DHT22;21086;44.780;17.194;2022-09-01T15:51:28;18.70;1.00
34877;DHT22;21086;44.780;17.194;2022-09-01T15:54:00;18.80;1.00
34877;DHT22;21086;44.780;17.194;2022-09-01T15:56:28;18.70;1.00
34877;DHT22;21086;44.780;17.194;2022-09-01T15:58:58;18.60;1.00
34877;DHT22;21086;44.780;17.194;2022-09-01T16:01:29;18.60;1.00
34877;DHT22;21086;44.780;17.194;2022-09-01T16:03:58;18.60;1.00
34877;DHT22;21086;44.780;17.194;2022-09-01T16:06:25;18.60;1.00
34877;DHT22;21086;44.780;17.194;2022-09-01T16:08:53;18.60;1.00
34877;DHT22;21086;44.780;17.194;2022-09-01T16:11:24;18.60;1.00
34877;DHT22;21086;44.780;17.194;2022-09-01T16:13:52;18.50;1.00
34877;DHT22;21086;44.780;17.194;2022-09-01T16:19:36;18.60;1.00
34877;DHT22;21086;44.780;17.194;2022-09-01T16:24:49;18.60;1.00
34877;DHT22;21086;44.780;17.194;2022-09-01T16:27:20;18.60;1.00
34877;DHT22;21086;44.780;17.194;2022-09-01T16:29:53;18.50;1.00
34877;DHT22;21086;44.780;17.194;2022-09-01T16:32:21;18.50;1.00
34877;DHT22;21086;44.780;17.194;2022-09-01T16:34:50;18.60;1.00
34877;DHT22;21086;44.780;17.194;2022-09-01T16:40:20;18.50;1.00
34877;DHT22;21086;44.780;17.194;2022-09-01T16:51:17;18.40;1.00
34877;DHT22;21086;44.780;17.194;2022-09-01T16:57:01;18.40;1.00
34877;DHT22;21086;44.780;17.194;2022-09-01T16:59:40;18.30;1.00
34877;DHT22;21086;44.780;17.194;2022-09-01T17:02:35;18.40;1.00
34877;DHT22;21086;44.780;17.194;2022-09-01T17:05:27;18.30;1.00
34877;DHT22;21086;44.780;17.194;2022-09-01T17:10:49;18.30;1.00
34877;DHT22;21086;44.780;17.194;2022-09-01T17:13:37;18.30;1.00
34877;DHT22;21086;44.780;17.194;2022-09-01T17:16:10;18.30;1.00
34877;DHT22;21086;44.780;17.194;2022-09-01T17:19:03;18.20;1.00
34877;DHT22;21086;44.780;17.194;2022-09-01T17:24:25;18.20;1.00
34877;DHT22;21086;44.780;17.194;2022-09-01T17:26:59;18.20;1.00
34877;DHT22;21086;44.780;17.194;2022-09-01T17:43:27;18.00;1.00
34877;DHT22;21086;44.780;17.194;2022-09-01T17:46:07;18.00;1.00
34877;DHT22;21086;44.780;17.194;2022-09-01T17:49:12;17.90;1.00
34877;DHT22;21086;44.780;17.194;2022-09-01T17:57:36;17.90;1.00
34877;DHT22;21086;44.780;17.194;2022-09-01T18:08:54;17.80;1.00
34877;DHT22;21086;44.780;17.194;2022-09-01T18:14:14;19.10;1.00
34877;DHT22;21086;44.780;17.194;2022-09-01T18:19:21;18.60;1.00
34877;DHT22;21086;44.780;17.194;2022-09-01T18:21:55;18.40;1.00
34877;DHT22;21086;44.780;17.194;2022-09-01T18:27:16;18.10;1.00
34877;DHT22;21086;44.780;17.194;2022-09-01T18:29:46;18.00;1.00